CheckWX is a tool to help pilots better visualize weather data.  It is not intended as a substitute for an official pre-flight weather briefing.

00:06:17 UTC

KDEC METAR
Decatur Airport
Decatur, Illinois, USA
Current

12 mins ago

KDEC 162354Z 08006KT 6SM HZ CLR 00/M03 A3022 RMK AO2 SLP241 T00001028 10061 21006 56013
Observed
Nov-16 @ 23:54 UTC
Wind
  • 080° at 6 KTS
Visibility
6 SM
Flight Rules
VFR
Conditions
Haze
Cloud Levels
  • Clear skies
Temperature
C / 32°F
Dewpoint
-3°C / 27°F
Humidity
80%
Altimeter
30.22" Hg
Pressure
1023.42 hPa
Previous

1 hour ago

KDEC 162254Z 09007KT 6SM HZ CLR 01/M02 A3023 RMK AO2 SLP243 T00111022
Observed
Nov-16 @ 22:54 UTC
Wind
  • 090° at 7 KTS
Visibility
6 SM
Flight Rules
VFR
Conditions
Haze
Cloud Levels
  • Clear skies
Temperature
C / 34°F
Dewpoint
-2°C / 28°F
Humidity
81%
Altimeter
30.23" Hg
Pressure
1023.72 hPa
Previous

2 hours ago

KDEC 162154Z 09008KT 7SM CLR 05/M01 A3024 RMK AO2 SLP247 T00501006
Observed
Nov-16 @ 21:54 UTC
Wind
  • 090° at 8 KTS
Visibility
7 SM
Flight Rules
VFR
Cloud Levels
  • Clear skies
Temperature
C / 41°F
Dewpoint
-1°C / 30°F
Humidity
66%
Altimeter
30.24" Hg
Pressure
1024.02 hPa